Time;durP1;ratioP1;P1;durP2;ratioP2;P2;SDS_P1;SDS_P2;PMS_P1;PMS_P2;Temp;Humidity;BMP_temperature;BMP_pressure;BME280_temperature;BME280_humidity;BME280_pressure;Samples;Min_cycle;Max_cycle;Signal;HPM_P1;HPM_P2
2022/09/29 00:00:49;;;;;;;;;;;;;;;;;;5045274;28;1494;-66
2022/09/29 00:03:14;;;;;;;;;;;;;;;;;;5062683;28;850;-65
2022/09/29 00:05:44;;;;;;;;;;;;;;;;;;5061814;28;921;-66
2022/09/29 00:08:10;;;;;;;;;;;;;;;;;;5062982;28;1211;-66
2022/09/29 00:10:38;;;;;;;;;;;;;;;;;;5063015;28;996;-66
2022/09/29 00:13:03;;;;;;;;;;;;;;;;;;5062584;28;815;-66
2022/09/29 00:15:28;;;;;;;;;;;;;;;;;;5062827;28;1973;-66
2022/09/29 00:17:54;;;;;;;;;;;;;;;;;;5062626;28;1164;-65
2022/09/29 00:20:19;;;;;;;;;;;;;;;;;;5062901;28;810;-66
2022/09/29 00:22:48;;;;;;;;;;;;;;;;;;5062593;28;941;-66
2022/09/29 00:25:13;;;;;;;;;;;;;;;;;;5062536;28;855;-66
2022/09/29 00:27:38;;;;;;;;;;;;;;;;;;5062688;28;1195;-66
2022/09/29 00:30:04;;;;;;;;;;;;;;;;;;5075639;22;3606;-68
2022/09/29 00:32:29;;;;;;;;;;;;;;;;;;5062376;28;926;-68
2022/09/29 00:34:54;;;;;;;;;;;;;;;;;;5062348;28;1965;-68
2022/09/29 00:37:19;;;;;;;;;;;;;;;;;;5062608;28;862;-68
2022/09/29 00:39:44;;;;;;;;;;;;;;;;;;5062449;28;1233;-68
2022/09/29 00:42:16;;;;;;;;;;;;;;;;;;5062441;28;930;-68
2022/09/29 00:44:53;;;;;;;;;;;;;;;;;;5044502;28;934;-68
2022/09/29 00:47:18;;;;;;;;;;;;;;;;;;5062136;28;1000;-68
2022/09/29 00:49:50;;;;;;;;;;;;;;;;;;5062594;28;1211;-68
2022/09/29 00:52:24;;;;;;;;;;;;;;;;;;5062399;28;811;-68
2022/09/29 00:54:51;;;;;;;;;;;;;;;;;;5061746;28;1894;-68
2022/09/29 00:57:20;;;;;;;;;;;;;;;;;;5062108;28;1430;-68
2022/09/29 00:59:48;;;;;;;;;;;;;;;;;;5062914;28;1148;-68
2022/09/29 01:02:14;;;;;;;;;;;;;;;;;;5062032;28;870;-68
2022/09/29 01:04:39;;;;;;;;;;;;;;;;;;5061703;28;1055;-68
2022/09/29 01:07:05;;;;;;;;;;;;;;;;;;5062082;28;862;-68
2022/09/29 01:09:32;;;;;;;;;;;;;;;;;;5062466;28;1175;-68
2022/09/29 01:11:58;;;;;;;;;;;;;;;;;;5062257;28;803;-68
2022/09/29 01:14:24;;;;;;;;;;;;;;;;;;5061712;28;862;-68
2022/09/29 01:16:49;;;;;;;;;;;;;;;;;;5061445;28;1906;-68
2022/09/29 01:19:17;;;;;;;;;;;;;;;;;;5061684;28;1132;-67
2022/09/29 01:22:02;;;;;;;;;;;;;;;;;;5062124;28;795;-67
2022/09/29 01:24:50;;;;;;;;;;;;;;;;;;5059940;28;890;-68
2022/09/29 01:27:23;;;;;;;;;;;;;;;;;;5061613;28;1017;-70
2022/09/29 01:30:11;;;;;;;;;;;;;;;;;;5061557;28;1274;-70
2022/09/29 01:32:46;;;;;;;;;;;;;;;;;;5061763;28;810;-69
2022/09/29 01:35:30;;;;;;;;;;;;;;;;;;5061029;28;2106;-70
2022/09/29 01:37:55;;;;;;;;;;;;;;;;;;5061718;28;902;-70
2022/09/29 01:40:48;;;;;;;;;;;;;;;;;;5061485;28;1254;-70
2022/09/29 01:43:18;;;;;;;;;;;;;;;;;;5057140;28;1042;-70
2022/09/29 01:45:47;;;;;;;;;;;;;;;;;;5061031;28;1009;-70
2022/09/29 01:48:16;;;;;;;;;;;;;;;;;;5061551;28;1251;-70
2022/09/29 01:50:44;;;;;;;;;;;;;;;;;;5061208;28;1075;-70
2022/09/29 01:53:12;;;;;;;;;;;;;;;;;;5061659;28;904;-70
2022/09/29 01:55:41;;;;;;;;;;;;;;;;;;5060907;28;1890;-70
2022/09/29 01:58:09;;;;;;;;;;;;;;;;;;5043376;28;1356;-70
2022/09/29 02:00:36;;;;;;;;;;;;;;;;;;5061217;28;807;-70
2022/09/29 02:03:14;;;;;;;;;;;;;;;;;;5061872;28;763;-70
2022/09/29 02:05:45;;;;;;;;;;;;;;;;;;5061207;28;1005;-70
2022/09/29 02:08:13;;;;;;;;;;;;;;;;;;5061070;28;1152;-69
2022/09/29 02:10:41;;;;;;;;;;;;;;;;;;5061024;28;823;-70
2022/09/29 02:13:08;;;;;;;;;;;;;;;;;;5061407;28;859;-69
2022/09/29 02:15:36;;;;;;;;;;;;;;;;;;5060534;28;1899;-70
2022/09/29 02:18:06;;;;;;;;;;;;;;;;;;5061148;28;921;-69
2022/09/29 02:20:31;;;;;;;;;;;;;;;;;;5061002;28;806;-69
2022/09/29 02:22:56;;;;;;;;;;;;;;;;;;5060848;28;823;-69
2022/09/29 02:25:22;;;;;;;;;;;;;;;;;;5060620;28;799;-70
2022/09/29 02:27:49;;;;;;;;;;;;;;;;;;5062485;28;1092;-70
2022/09/29 02:30:14;;;;;;;;;;;;;;;;;;5064464;28;1219;-70
2022/09/29 02:32:39;;;;;;;;;;;;;;;;;;5064586;28;858;-70
2022/09/29 02:35:05;;;;;;;;;;;;;;;;;;5064062;28;1890;-70
2022/09/29 02:37:47;;;;;;;;;;;;;;;;;;5064231;28;1854;-70
2022/09/29 02:40:27;;;;;;;;;;;;;;;;;;5064409;28;1153;-69
2022/09/29 02:43:19;;;;;;;;;;;;;;;;;;5064440;28;843;-70
2022/09/29 02:46:04;;;;;;;;;;;;;;;;;;5044756;28;1420;-70
2022/09/29 02:48:32;;;;;;;;;;;;;;;;;;5064281;28;1160;-70
2022/09/29 02:51:00;;;;;;;;;;;;;;;;;;5064095;28;1036;-70
2022/09/29 02:53:44;;;;;;;;;;;;;;;;;;5064275;28;910;-70
2022/09/29 02:56:13;;;;;;;;;;;;;;;;;;5063674;28;1947;-69
2022/09/29 02:58:45;;;;;;;;;;;;;;;;;;5064225;28;1259;-70
2022/09/29 03:01:14;;;;;;;;;;;;;;;;;;5064135;28;993;-70
2022/09/29 03:03:39;;;;;;;;;;;;;;;;;;5064086;28;791;-69
2022/09/29 03:06:04;;;;;;;;;;;;;;;;;;5063689;28;807;-70
2022/09/29 03:08:31;;;;;;;;;;;;;;;;;;5063743;28;1148;-70
2022/09/29 03:10:56;;;;;;;;;;;;;;;;;;5063831;28;784;-70
2022/09/29 03:13:21;;;;;;;;;;;;;;;;;;5063634;28;921;-69
2022/09/29 03:15:46;;;;;;;;;;;;;;;;;;5063383;28;1958;-70
2022/09/29 03:18:11;;;;;;;;;;;;;;;;;;5063794;28;1254;-70
2022/09/29 03:20:37;;;;;;;;;;;;;;;;;;5064085;28;875;-69
2022/09/29 03:23:02;;;;;;;;;;;;;;;;;;5063673;28;823;-69
2022/09/29 03:25:27;;;;;;;;;;;;;;;;;;5063307;28;961;-70
2022/09/29 03:27:52;;;;;;;;;;;;;;;;;;5063564;28;858;-70
2022/09/29 03:30:17;;;;;;;;;;;;;;;;;;5063410;28;1267;-69
2022/09/29 03:32:43;;;;;;;;;;;;;;;;;;5063607;28;909;-70
2022/09/29 03:35:08;;;;;;;;;;;;;;;;;;5063002;28;1898;-70
2022/09/29 03:37:33;;;;;;;;;;;;;;;;;;5063512;28;926;-70
2022/09/29 03:39:59;;;;;;;;;;;;;;;;;;5063367;28;1160;-70
2022/09/29 03:42:25;;;;;;;;;;;;;;;;;;5063391;28;1191;-70
2022/09/29 03:44:50;;;;;;;;;;;;;;;;;;5063350;28;824;-70
2022/09/29 03:47:15;;;;;;;;;;;;;;;;;;5063127;28;826;-70
2022/09/29 03:49:40;;;;;;;;;;;;;;;;;;5063363;28;1149;-70
2022/09/29 03:52:06;;;;;;;;;;;;;;;;;;5063534;28;857;-69
2022/09/29 03:54:31;;;;;;;;;;;;;;;;;;5062678;28;822;-69
2022/09/29 03:56:56;;;;;;;;;;;;;;;;;;5063063;28;1893;-69
2022/09/29 03:59:21;;;;;;;;;;;;;;;;;;5063336;28;1266;-69
2022/09/29 04:01:46;;;;;;;;;;;;;;;;;;5063386;28;756;-69
2022/09/29 04:04:12;;;;;;;;;;;;;;;;;;5062919;28;1048;-69
2022/09/29 04:06:37;;;;;;;;;;;;;;;;;;5062866;28;830;-67
2022/09/29 04:09:02;;;;;;;;;;;;;;;;;;5062833;28;1176;-67
2022/09/29 04:11:27;;;;;;;;;;;;;;;;;;5063195;28;842;-67
2022/09/29 04:13:53;;;;;;;;;;;;;;;;;;5062789;28;954;-67
2022/09/29 04:16:18;;;;;;;;;;;;;;;;;;5062463;28;1965;-67
2022/09/29 04:18:43;;;;;;;;;;;;;;;;;;5062682;28;1279;-70
2022/09/29 04:21:08;;;;;;;;;;;;;;;;;;5062893;28;890;-70
2022/09/29 04:23:34;;;;;;;;;;;;;;;;;;5044772;28;1160;-70
2022/09/29 04:26:01;;;;;;;;;;;;;;;;;;5062354;28;936;-70
2022/09/29 04:28:26;;;;;;;;;;;;;;;;;;5062484;28;1192;-70
2022/09/29 04:30:51;;;;;;;;;;;;;;;;;;5062763;28;977;-70
2022/09/29 04:33:17;;;;;;;;;;;;;;;;;;5062595;28;981;-70
2022/09/29 04:35:42;;;;;;;;;;;;;;;;;;5062107;28;1977;-67
2022/09/29 04:38:07;;;;;;;;;;;;;;;;;;5044815;28;1284;-67
2022/09/29 04:40:35;;;;;;;;;;;;;;;;;;5044923;28;1364;-67
2022/09/29 04:43:01;;;;;;;;;;;;;;;;;;5062543;28;922;-67
2022/09/29 04:45:26;;;;;;;;;;;;;;;;;;5061976;28;819;-67
2022/09/29 04:47:51;;;;;;;;;;;;;;;;;;5062628;28;831;-67
2022/09/29 04:50:16;;;;;;;;;;;;;;;;;;5061659;28;1160;-67
2022/09/29 04:52:42;;;;;;;;;;;;;;;;;;5062293;28;964;-67
2022/09/29 04:55:10;;;;;;;;;;;;;;;;;;5061943;28;1889;-67
2022/09/29 04:57:35;;;;;;;;;;;;;;;;;;5062495;28;858;-67
2022/09/29 05:00:00;;;;;;;;;;;;;;;;;;5062103;28;1243;-67
2022/09/29 05:02:25;;;;;;;;;;;;;;;;;;5062216;28;1171;-67
2022/09/29 05:04:51;;;;;;;;;;;;;;;;;;5061882;28;914;-67
2022/09/29 05:07:16;;;;;;;;;;;;;;;;;;5061995;28;874;-67
2022/09/29 05:09:41;;;;;;;;;;;;;;;;;;5061860;28;1275;-67
2022/09/29 05:12:06;;;;;;;;;;;;;;;;;;5061978;28;942;-68
2022/09/29 05:14:31;;;;;;;;;;;;;;;;;;5061908;28;800;-67
2022/09/29 05:16:57;;;;;;;;;;;;;;;;;;5061886;28;1959;-67
2022/09/29 05:19:22;;;;;;;;;;;;;;;;;;5062096;28;1247;-68
2022/09/29 05:21:47;;;;;;;;;;;;;;;;;;5061875;28;882;-67
2022/09/29 05:24:12;;;;;;;;;;;;;;;;;;5061486;28;969;-67
2022/09/29 05:26:38;;;;;;;;;;;;;;;;;;5061651;28;847;-67
2022/09/29 05:29:03;;;;;;;;;;;;;;;;;;5061633;28;1152;-68
2022/09/29 05:31:28;;;;;;;;;;;;;;;;;;5061784;28;1068;-69
2022/09/29 05:33:54;;;;;;;;;;;;;;;;;;5061974;28;1047;-69
2022/09/29 05:36:20;;;;;;;;;;;;;;;;;;5061209;28;1901;-69
2022/09/29 05:38:45;;;;;;;;;;;;;;;;;;5061350;28;1282;-69
2022/09/29 05:41:11;;;;;;;;;;;;;;;;;;5061433;28;918;-69
2022/09/29 05:43:36;;;;;;;;;;;;;;;;;;5061646;28;1004;-69
2022/09/29 05:46:02;;;;;;;;;;;;;;;;;;5061019;28;997;-69
2022/09/29 05:48:31;;;;;;;;;;;;;;;;;;5061444;28;1486;-69
2022/09/29 05:50:57;;;;;;;;;;;;;;;;;;5061214;28;830;-69
2022/09/29 05:53:22;;;;;;;;;;;;;;;;;;5061450;28;985;-69
2022/09/29 05:55:47;;;;;;;;;;;;;;;;;;5060685;28;1905;-69
2022/09/29 05:58:12;;;;;;;;;;;;;;;;;;5061235;28;1198;-69
2022/09/29 06:00:38;;;;;;;;;;;;;;;;;;5061507;28;803;-69
2022/09/29 06:03:03;;;;;;;;;;;;;;;;;;5060169;28;1044;-69
2022/09/29 06:05:28;;;;;;;;;;;;;;;;;;5060725;28;914;-69
2022/09/29 06:07:54;;;;;;;;;;;;;;;;;;5061554;28;795;-69
2022/09/29 06:10:19;;;;;;;;;;;;;;;;;;5061160;28;1187;-69
2022/09/29 06:12:44;;;;;;;;;;;;;;;;;;5061269;28;819;-69
2022/09/29 06:15:10;;;;;;;;;;;;;;;;;;5060625;28;1965;-69
2022/09/29 06:17:35;;;;;;;;;;;;;;;;;;5060920;28;1021;-69
2022/09/29 06:20:01;;;;;;;;;;;;;;;;;;5060987;28;1274;-69
2022/09/29 06:22:26;;;;;;;;;;;;;;;;;;5060931;28;799;-68
2022/09/29 06:24:51;;;;;;;;;;;;;;;;;;5060695;28;874;-69
2022/09/29 06:27:17;;;;;;;;;;;;;;;;;;5060900;28;799;-68
2022/09/29 06:29:42;;;;;;;;;;;;;;;;;;5073185;22;3913;-64
2022/09/29 06:32:07;;;;;;;;;;;;;;;;;;5060574;28;803;-64
2022/09/29 06:34:32;;;;;;;;;;;;;;;;;;5060628;28;1005;-64
2022/09/29 06:39:41;;;;;;;;;;;;;;;;;;5060707;28;1282;-64
2022/09/29 06:42:07;;;;;;;;;;;;;;;;;;5060658;28;902;-64
2022/09/29 06:44:32;;;;;;;;;;;;;;;;;;5060613;28;847;-64
2022/09/29 06:46:57;;;;;;;;;;;;;;;;;;5060394;28;906;-64
2022/09/29 06:49:23;;;;;;;;;;;;;;;;;;5060666;28;1204;-64
2022/09/29 06:51:49;;;;;;;;;;;;;;;;;;5060490;28;965;-64
2022/09/29 06:54:15;;;;;;;;;;;;;;;;;;5060642;28;972;-64
2022/09/29 06:56:40;;;;;;;;;;;;;;;;;;5059059;28;1902;-64
2022/09/29 06:59:06;;;;;;;;;;;;;;;;;;5060564;28;1251;-64
2022/09/29 07:01:31;;;;;;;;;;;;;;;;;;5060833;28;859;-64
2022/09/29 07:03:56;;;;;;;;;;;;;;;;;;5060418;28;973;-64
2022/09/29 07:06:21;;;;;;;;;;;;;;;;;;5060133;28;807;-64
2022/09/29 07:08:47;;;;;;;;;;;;;;;;;;5060568;28;791;-64
2022/09/29 07:11:12;;;;;;;;;;;;;;;;;;5060540;28;1205;-64
2022/09/29 07:13:37;;;;;;;;;;;;;;;;;;5061177;28;838;-64
2022/09/29 07:16:07;;;;;;;;;;;;;;;;;;5063534;28;1894;-64
2022/09/29 07:18:36;;;;;;;;;;;;;;;;;;5063780;28;952;-64
2022/09/29 07:21:02;;;;;;;;;;;;;;;;;;5045641;28;1191;-64
2022/09/29 07:23:27;;;;;;;;;;;;;;;;;;5063939;28;743;-64
2022/09/29 07:25:53;;;;;;;;;;;;;;;;;;5063567;28;822;-64
2022/09/29 07:28:18;;;;;;;;;;;;;;;;;;5045500;28;1616;-65
2022/09/29 07:30:43;;;;;;;;;;;;;;;;;;5063455;28;1156;-65
2022/09/29 07:33:09;;;;;;;;;;;;;;;;;;5063929;28;784;-65
2022/09/29 07:35:34;;;;;;;;;;;;;;;;;;5063295;28;1898;-65
2022/09/29 07:37:59;;;;;;;;;;;;;;;;;;5063376;28;1156;-65
2022/09/29 07:40:25;;;;;;;;;;;;;;;;;;5063611;28;1129;-65
2022/09/29 07:42:50;;;;;;;;;;;;;;;;;;5063359;28;803;-65
2022/09/29 07:45:16;;;;;;;;;;;;;;;;;;5063339;28;1028;-65
2022/09/29 07:47:41;;;;;;;;;;;;;;;;;;5045384;28;929;-65
2022/09/29 07:50:06;;;;;;;;;;;;;;;;;;5063046;28;1235;-65
2022/09/29 07:52:31;;;;;;;;;;;;;;;;;;5063554;28;926;-65
2022/09/29 07:54:56;;;;;;;;;;;;;;;;;;5062792;28;1894;-65
2022/09/29 07:57:22;;;;;;;;;;;;;;;;;;5063043;28;1048;-65
2022/09/29 07:59:47;;;;;;;;;;;;;;;;;;5063105;28;1152;-65
2022/09/29 08:02:12;;;;;;;;;;;;;;;;;;5063608;28;898;-65
2022/09/29 08:04:37;;;;;;;;;;;;;;;;;;5062820;28;887;-65
2022/09/29 08:07:02;;;;;;;;;;;;;;;;;;5062923;28;883;-65
2022/09/29 08:09:28;;;;;;;;;;;;;;;;;;5062933;28;1136;-65
2022/09/29 08:11:53;;;;;;;;;;;;;;;;;;5063040;28;910;-65
2022/09/29 08:14:18;;;;;;;;;;;;;;;;;;5062916;28;834;-65
2022/09/29 08:16:43;;;;;;;;;;;;;;;;;;5063006;28;1953;-65
2022/09/29 08:19:08;;;;;;;;;;;;;;;;;;5062801;28;1239;-65
2022/09/29 08:21:35;;;;;;;;;;;;;;;;;;5062727;28;791;-65
2022/09/29 08:24:01;;;;;;;;;;;;;;;;;;5062982;28;819;-65
2022/09/29 08:26:26;;;;;;;;;;;;;;;;;;5061477;28;852;-65
2022/09/29 08:28:51;;;;;;;;;;;;;;;;;;5044774;28;1148;-65
2022/09/29 08:31:19;;;;;;;;;;;;;;;;;;5062631;28;866;-65
2022/09/29 08:33:44;;;;;;;;;;;;;;;;;;5062742;28;839;-65
2022/09/29 08:36:16;;;;;;;;;;;;;;;;;;5061966;28;1955;-64
2022/09/29 08:38:42;;;;;;;;;;;;;;;;;;5062622;28;899;-65
2022/09/29 08:41:24;;;;;;;;;;;;;;;;;;5062407;28;1251;-65
2022/09/29 08:43:51;;;;;;;;;;;;;;;;;;5062595;28;1036;-65
2022/09/29 08:46:27;;;;;;;;;;;;;;;;;;5062011;28;973;-65
2022/09/29 08:48:52;;;;;;;;;;;;;;;;;;5062212;28;1238;-65
2022/09/29 08:51:24;;;;;;;;;;;;;;;;;;5062134;28;982;-65
2022/09/29 08:53:51;;;;;;;;;;;;;;;;;;5062396;28;799;-65
2022/09/29 08:56:17;;;;;;;;;;;;;;;;;;5043912;28;1967;-65
2022/09/29 08:58:42;;;;;;;;;;;;;;;;;;5062209;28;763;-66
2022/09/29 09:01:10;;;;;;;;;;;;;;;;;;5061979;28;1322;-66
2022/09/29 09:03:55;;;;;;;;;;;;;;;;;;5062286;28;930;-66
2022/09/29 09:06:43;;;;;;;;;;;;;;;;;;5061563;28;855;-66
2022/09/29 09:09:25;;;;;;;;;;;;;;;;;;5051207;28;1132;-65
2022/09/29 09:11:57;;;;;;;;;;;;;;;;;;5061876;28;803;-65
2022/09/29 09:14:28;;;;;;;;;;;;;;;;;;5062065;28;1036;-65
2022/09/29 09:17:02;;;;;;;;;;;;;;;;;;5061750;28;1898;-65
2022/09/29 09:19:54;;;;;;;;;;;;;;;;;;5061798;28;1224;-66
2022/09/29 09:22:23;;;;;;;;;;;;;;;;;;5061803;28;806;-67
2022/09/29 09:25:00;;;;;;;;;;;;;;;;;;5062019;28;961;-66
2022/09/29 09:27:32;;;;;;;;;;;;;;;;;;5061778;28;794;-65
2022/09/29 09:30:02;;;;;;;;;;;;;;;;;;5061606;28;1141;-65
2022/09/29 09:32:29;;;;;;;;;;;;;;;;;;5061715;28;898;-65
2022/09/29 09:35:18;;;;;;;;;;;;;;;;;;5043365;28;1965;-65
2022/09/29 09:37:44;;;;;;;;;;;;;;;;;;5050571;28;1070;-66
2022/09/29 09:40:10;;;;;;;;;;;;;;;;;;5061300;28;1187;-65
2022/09/29 09:42:37;;;;;;;;;;;;;;;;;;5061854;28;834;-66
2022/09/29 09:45:03;;;;;;;;;;;;;;;;;;5061505;28;815;-65
2022/09/29 09:47:29;;;;;;;;;;;;;;;;;;5061329;28;854;-66
2022/09/29 09:49:57;;;;;;;;;;;;;;;;;;5061436;28;1165;-65
2022/09/29 09:52:28;;;;;;;;;;;;;;;;;;5061460;28;834;-65
2022/09/29 09:54:55;;;;;;;;;;;;;;;;;;5061323;28;2311;-65
2022/09/29 09:57:32;;;;;;;;;;;;;;;;;;5060950;28;866;-65
2022/09/29 10:00:04;;;;;;;;;;;;;;;;;;5061475;28;1274;-65
2022/09/29 10:02:30;;;;;;;;;;;;;;;;;;5061372;28;850;-65
2022/09/29 10:04:55;;;;;;;;;;;;;;;;;;5061356;28;858;-65
2022/09/29 10:07:22;;;;;;;;;;;;;;;;;;5043154;28;826;-66
2022/09/29 10:09:47;;;;;;;;;;;;;;;;;;5061160;28;1183;-68
2022/09/29 10:12:20;;;;;;;;;;;;;;;;;;5061287;28;889;-66
2022/09/29 10:14:50;;;;;;;;;;;;;;;;;;5060723;28;1768;-66
2022/09/29 10:17:16;;;;;;;;;;;;;;;;;;5060953;28;1901;-66
2022/09/29 10:20:02;;;;;;;;;;;;;;;;;;5061025;28;1192;-65
2022/09/29 10:22:28;;;;;;;;;;;;;;;;;;5061030;28;752;-66
2022/09/29 10:25:04;;;;;;;;;;;;;;;;;;5060849;28;922;-65
2022/09/29 10:27:30;;;;;;;;;;;;;;;;;;5060763;28;803;-65
2022/09/29 10:29:57;;;;;;;;;;;;;;;;;;5043113;28;1258;-65
2022/09/29 10:32:35;;;;;;;;;;;;;;;;;;5060733;28;831;-65
2022/09/29 10:35:02;;;;;;;;;;;;;;;;;;5060605;28;1898;-65
2022/09/29 10:37:34;;;;;;;;;;;;;;;;;;5060843;28;906;-65
2022/09/29 10:40:09;;;;;;;;;;;;;;;;;;5060741;28;1259;-65
2022/09/29 10:42:35;;;;;;;;;;;;;;;;;;5060729;28;830;-65
2022/09/29 10:45:06;;;;;;;;;;;;;;;;;;5060821;28;973;-66
2022/09/29 10:47:32;;;;;;;;;;;;;;;;;;5060485;28;895;-65
2022/09/29 10:50:11;;;;;;;;;;;;;;;;;;5063487;28;1108;-66
2022/09/29 10:52:36;;;;;;;;;;;;;;;;;;5046223;28;891;-66
2022/09/29 10:55:02;;;;;;;;;;;;;;;;;;5063999;28;1951;-65
2022/09/29 10:57:29;;;;;;;;;;;;;;;;;;5064071;28;807;-66
2022/09/29 10:59:56;;;;;;;;;;;;;;;;;;5064136;28;1851;-66
2022/09/29 11:02:33;;;;;;;;;;;;;;;;;;5063922;28;835;-65
2022/09/29 11:05:00;;;;;;;;;;;;;;;;;;5063780;28;803;-66
2022/09/29 11:07:25;;;;;;;;;;;;;;;;;;5063975;28;969;-65
2022/09/29 11:09:53;;;;;;;;;;;;;;;;;;5063927;28;1283;-65
2022/09/29 11:12:24;;;;;;;;;;;;;;;;;;5063657;28;799;-65
2022/09/29 11:14:49;;;;;;;;;;;;;;;;;;5063688;28;1056;-66
2022/09/29 11:17:24;;;;;;;;;;;;;;;;;;5063570;28;1964;-66
2022/09/29 11:19:50;;;;;;;;;;;;;;;;;;5063669;28;1191;-65
2022/09/29 11:22:23;;;;;;;;;;;;;;;;;;5063341;28;1192;-65
2022/09/29 11:25:04;;;;;;;;;;;;;;;;;;5063428;28;858;-65
2022/09/29 11:27:35;;;;;;;;;;;;;;;;;;5063531;28;989;-66
2022/09/29 11:30:04;;;;;;;;;;;;;;;;;;5063355;28;1195;-65
2022/09/29 11:32:48;;;;;;;;;;;;;;;;;;5063552;28;969;-65
2022/09/29 11:35:18;;;;;;;;;;;;;;;;;;5063109;28;1953;-65
2022/09/29 11:37:50;;;;;;;;;;;;;;;;;;5063694;28;806;-66
2022/09/29 11:40:19;;;;;;;;;;;;;;;;;;5063303;28;1262;-65
2022/09/29 11:43:04;;;;;;;;;;;;;;;;;;5063526;28;838;-66
2022/09/29 11:45:54;;;;;;;;;;;;;;;;;;5063272;28;827;-65
2022/09/29 11:48:20;;;;;;;;;;;;;;;;;;5063263;28;940;-65
2022/09/29 11:50:52;;;;;;;;;;;;;;;;;;5063187;28;1172;-65
2022/09/29 11:53:25;;;;;;;;;;;;;;;;;;5063303;28;969;-65
2022/09/29 11:55:50;;;;;;;;;;;;;;;;;;5062920;28;2002;-65
2022/09/29 11:58:27;;;;;;;;;;;;;;;;;;5062905;28;921;-65
2022/09/29 12:01:11;;;;;;;;;;;;;;;;;;5061582;28;1154;-66
2022/09/29 12:03:36;;;;;;;;;;;;;;;;;;5063163;28;787;-67
2022/09/29 12:06:26;;;;;;;;;;;;;;;;;;5062878;28;978;-68
2022/09/29 12:08:55;;;;;;;;;;;;;;;;;;5063059;28;1313;-66
2022/09/29 12:11:23;;;;;;;;;;;;;;;;;;5062940;28;811;-66
2022/09/29 12:14:04;;;;;;;;;;;;;;;;;;5062967;28;894;-65
2022/09/29 12:16:32;;;;;;;;;;;;;;;;;;5062694;28;1894;-67
2022/09/29 12:18:58;;;;;;;;;;;;;;;;;;5062612;28;1254;-66
2022/09/29 12:21:36;;;;;;;;;;;;;;;;;;5062925;28;1239;-67
2022/09/29 12:24:04;;;;;;;;;;;;;;;;;;5062881;28;902;-67
2022/09/29 12:26:30;;;;;;;;;;;;;;;;;;5062548;28;1076;-67
2022/09/29 12:29:01;;;;;;;;;;;;;;;;;;5062411;28;1192;-68
2022/09/29 12:31:26;;;;;;;;;;;;;;;;;;5076536;22;3814;-68
2022/09/29 12:33:55;;;;;;;;;;;;;;;;;;5062550;28;834;-68
2022/09/29 12:39:10;;;;;;;;;;;;;;;;;;5062350;28;1212;-68
2022/09/29 12:41:37;;;;;;;;;;;;;;;;;;5043801;28;855;-68
2022/09/29 12:44:17;;;;;;;;;;;;;;;;;;5062478;28;1013;-68
2022/09/29 12:47:01;;;;;;;;;;;;;;;;;;5061951;28;811;-68
2022/09/29 12:49:38;;;;;;;;;;;;;;;;;;5062363;28;1243;-68
2022/09/29 12:52:08;;;;;;;;;;;;;;;;;;5044130;28;1476;-68
2022/09/29 12:54:49;;;;;;;;;;;;;;;;;;5061968;28;965;-68
2022/09/29 12:57:16;;;;;;;;;;;;;;;;;;5062199;28;1957;-68
2022/09/29 13:00:04;;;;;;;;;;;;;;;;;;5062178;28;1242;-68
2022/09/29 13:02:40;;;;;;;;;;;;;;;;;;5058704;28;1625;-68
2022/09/29 13:05:06;;;;;;;;;;;;;;;;;;5061998;28;952;-68
2022/09/29 13:07:51;;;;;;;;;;;;;;;;;;5062121;28;830;-68
2022/09/29 13:10:23;;;;;;;;;;;;;;;;;;5061425;28;1151;-68
2022/09/29 13:12:58;;;;;;;;;;;;;;;;;;5062030;28;823;-68
2022/09/29 13:15:24;;;;;;;;;;;;;;;;;;5061880;28;1890;-69
2022/09/29 13:18:04;;;;;;;;;;;;;;;;;;5061791;28;865;-69
2022/09/29 13:20:41;;;;;;;;;;;;;;;;;;5061762;28;1156;-69
2022/09/29 13:23:25;;;;;;;;;;;;;;;;;;5062279;28;905;-69
2022/09/29 13:26:00;;;;;;;;;;;;;;;;;;5061534;28;882;-68
2022/09/29 13:28:31;;;;;;;;;;;;;;;;;;5062059;28;977;-69
2022/09/29 13:30:59;;;;;;;;;;;;;;;;;;5061566;28;1314;-69
2022/09/29 13:33:25;;;;;;;;;;;;;;;;;;5062366;28;945;-68
2022/09/29 13:35:51;;;;;;;;;;;;;;;;;;5061165;28;1898;-69
2022/09/29 13:38:26;;;;;;;;;;;;;;;;;;5061596;28;997;-69
2022/09/29 13:41:11;;;;;;;;;;;;;;;;;;5061600;28;1267;-69
2022/09/29 13:43:56;;;;;;;;;;;;;;;;;;5061635;28;847;-69
2022/09/29 13:46:25;;;;;;;;;;;;;;;;;;5060469;28;1124;-69
2022/09/29 13:48:52;;;;;;;;;;;;;;;;;;5061859;28;877;-69
2022/09/29 13:51:21;;;;;;;;;;;;;;;;;;5061137;28;1179;-68
2022/09/29 13:54:06;;;;;;;;;;;;;;;;;;5061546;28;981;-68
2022/09/29 13:56:31;;;;;;;;;;;;;;;;;;5060806;28;1894;-69
2022/09/29 13:59:00;;;;;;;;;;;;;;;;;;5061154;28;925;-69
2022/09/29 14:01:31;;;;;;;;;;;;;;;;;;5061100;28;1172;-69
2022/09/29 14:03:57;;;;;;;;;;;;;;;;;;5061828;28;879;-69
2022/09/29 14:06:23;;;;;;;;;;;;;;;;;;5061091;28;882;-69
2022/09/29 14:08:59;;;;;;;;;;;;;;;;;;5061073;28;973;-69
2022/09/29 14:11:36;;;;;;;;;;;;;;;;;;5060886;28;1248;-69
2022/09/29 14:14:06;;;;;;;;;;;;;;;;;;5043430;28;820;-69
2022/09/29 14:16:40;;;;;;;;;;;;;;;;;;5060933;28;1898;-69
2022/09/29 14:19:07;;;;;;;;;;;;;;;;;;5061063;28;862;-69
2022/09/29 14:21:46;;;;;;;;;;;;;;;;;;5061567;28;753;-69
2022/09/29 14:24:30;;;;;;;;;;;;;;;;;;5059713;28;906;-69
2022/09/29 14:27:12;;;;;;;;;;;;;;;;;;5061079;28;970;-69
2022/09/29 14:29:40;;;;;;;;;;;;;;;;;;5060815;28;1194;-69
2022/09/29 14:32:13;;;;;;;;;;;;;;;;;;5061196;28;799;-69
2022/09/29 14:34:38;;;;;;;;;;;;;;;;;;5060894;28;803;-69
2022/09/29 14:37:06;;;;;;;;;;;;;;;;;;5042995;28;1898;-69
2022/09/29 14:39:31;;;;;;;;;;;;;;;;;;5060796;28;1250;-69
2022/09/29 14:41:56;;;;;;;;;;;;;;;;;;5060739;28;960;-69
2022/09/29 14:53:24;;;;;;;;;;;;;;;;;;5060744;28;640;-69
2022/09/29 14:55:58;;;;;;;;;;;;;;;;;;5060592;28;1897;-69
2022/09/29 14:58:42;;;;;;;;;;;;;;;;;;5060235;28;963;-69
2022/09/29 15:01:09;;;;;;;;;;;;;;;;;;5060444;28;1176;-69
2022/09/29 15:03:42;;;;;;;;;;;;;;;;;;5060417;28;810;-69
2022/09/29 15:06:21;;;;;;;;;;;;;;;;;;5060384;28;842;-69
2022/09/29 15:08:58;;;;;;;;;;;;;;;;;;5060309;28;1655;-69
2022/09/29 15:11:26;;;;;;;;;;;;;;;;;;5060277;28;1180;-69
2022/09/29 15:13:54;;;;;;;;;;;;;;;;;;5060223;28;874;-69
2022/09/29 15:16:38;;;;;;;;;;;;;;;;;;5060058;28;1898;-69
2022/09/29 15:19:13;;;;;;;;;;;;;;;;;;5060356;28;950;-69
2022/09/29 15:21:45;;;;;;;;;;;;;;;;;;5060297;28;853;-69
2022/09/29 15:24:13;;;;;;;;;;;;;;;;;;5060180;28;799;-69
2022/09/29 15:26:39;;;;;;;;;;;;;;;;;;5041954;28;1291;-69
2022/09/29 15:29:05;;;;;;;;;;;;;;;;;;5060214;28;1004;-68
2022/09/29 15:31:33;;;;;;;;;;;;;;;;;;5059969;28;1302;-69
2022/09/29 15:33:58;;;;;;;;;;;;;;;;;;5060190;28;842;-69
2022/09/29 15:36:24;;;;;;;;;;;;;;;;;;5045165;28;1975;-69
2022/09/29 15:38:50;;;;;;;;;;;;;;;;;;5063517;28;882;-69
2022/09/29 15:41:16;;;;;;;;;;;;;;;;;;5063319;28;1235;-69
2022/09/29 15:43:50;;;;;;;;;;;;;;;;;;5063347;28;803;-69
2022/09/29 15:46:18;;;;;;;;;;;;;;;;;;5063240;28;826;-69
2022/09/29 15:49:03;;;;;;;;;;;;;;;;;;5063286;28;844;-69
2022/09/29 15:51:28;;;;;;;;;;;;;;;;;;5045127;28;1569;-69
2022/09/29 15:53:54;;;;;;;;;;;;;;;;;;5063523;28;874;-69
2022/09/29 15:56:20;;;;;;;;;;;;;;;;;;5062925;28;1959;-69
2022/09/29 15:58:46;;;;;;;;;;;;;;;;;;5063465;28;1056;-69
2022/09/29 16:01:12;;;;;;;;;;;;;;;;;;5063435;28;1260;-69
2022/09/29 16:03:45;;;;;;;;;;;;;;;;;;5063314;28;851;-69
2022/09/29 16:06:30;;;;;;;;;;;;;;;;;;5062865;28;869;-69
2022/09/29 16:08:58;;;;;;;;;;;;;;;;;;5063343;28;895;-69
2022/09/29 16:11:29;;;;;;;;;;;;;;;;;;5062676;28;1247;-69
2022/09/29 16:13:58;;;;;;;;;;;;;;;;;;5063207;28;830;-69
2022/09/29 16:16:26;;;;;;;;;;;;;;;;;;5062433;28;1893;-69
2022/09/29 16:18:52;;;;;;;;;;;;;;;;;;5065427;28;945;-71
2022/09/29 16:21:19;;;;;;;;;;;;;;;;;;5072204;28;1239;-70
2022/09/29 16:23:50;;;;;;;;;;;;;;;;;;5062931;28;850;-70
2022/09/29 16:26:17;;;;;;;;;;;;;;;;;;5062415;28;812;-68
2022/09/29 16:28:59;;;;;;;;;;;;;;;;;;5062667;28;882;-68
2022/09/29 16:31:26;;;;;;;;;;;;;;;;;;5062279;28;1202;-69
2022/09/29 16:33:53;;;;;;;;;;;;;;;;;;5063006;28;865;-69
2022/09/29 16:36:20;;;;;;;;;;;;;;;;;;5062584;28;1898;-69
2022/09/29 16:38:50;;;;;;;;;;;;;;;;;;5062568;28;1005;-69
2022/09/29 16:41:33;;;;;;;;;;;;;;;;;;5062273;28;1180;-69
2022/09/29 16:44:09;;;;;;;;;;;;;;;;;;5062731;28;830;-69
2022/09/29 16:46:40;;;;;;;;;;;;;;;;;;5061423;28;849;-69
2022/09/29 16:49:11;;;;;;;;;;;;;;;;;;5062734;28;849;-69
2022/09/29 16:51:40;;;;;;;;;;;;;;;;;;5062247;28;1001;-69
2022/09/29 16:54:08;;;;;;;;;;;;;;;;;;5062357;28;852;-69
2022/09/29 16:56:35;;;;;;;;;;;;;;;;;;5061969;28;1906;-69
2022/09/29 16:59:10;;;;;;;;;;;;;;;;;;5062489;28;854;-69
2022/09/29 17:01:35;;;;;;;;;;;;;;;;;;5062330;28;818;-69
2022/09/29 17:04:00;;;;;;;;;;;;;;;;;;5062324;28;1036;-69
2022/09/29 17:06:25;;;;;;;;;;;;;;;;;;5061825;28;992;-69
2022/09/29 17:08:50;;;;;;;;;;;;;;;;;;5062122;28;811;-69
2022/09/29 17:11:16;;;;;;;;;;;;;;;;;;5061776;28;1177;-69
2022/09/29 17:13:41;;;;;;;;;;;;;;;;;;5061964;28;894;-69
2022/09/29 17:16:07;;;;;;;;;;;;;;;;;;5061618;28;1964;-69
2022/09/29 17:18:32;;;;;;;;;;;;;;;;;;5062161;28;894;-68
2022/09/29 17:20:57;;;;;;;;;;;;;;;;;;5061684;28;1251;-68
2022/09/29 17:23:23;;;;;;;;;;;;;;;;;;5061808;28;998;-69
2022/09/29 17:25:48;;;;;;;;;;;;;;;;;;5061482;28;1071;-69
2022/09/29 17:28:23;;;;;;;;;;;;;;;;;;5061967;28;807;-69
2022/09/29 17:30:50;;;;;;;;;;;;;;;;;;5061576;28;1189;-69
2022/09/29 17:33:15;;;;;;;;;;;;;;;;;;5062069;28;850;-69
2022/09/29 17:35:44;;;;;;;;;;;;;;;;;;5061318;28;1914;-68
2022/09/29 17:38:11;;;;;;;;;;;;;;;;;;5061942;28;870;-69
2022/09/29 17:40:55;;;;;;;;;;;;;;;;;;5061785;28;1172;-68